createdAt,value
2022-09-26T00:01:48.432Z,17.28
2022-09-26T00:06:51.249Z,17.58
2022-09-26T00:11:48.645Z,17.62
2022-09-26T00:16:53.623Z,17.97
2022-09-26T00:21:55.583Z,17.82
2022-09-26T00:26:52.977Z,17.58
2022-09-26T00:31:57.721Z,17.90
2022-09-26T00:37:02.540Z,17.42
2022-09-26T00:42:02.964Z,17.81
2022-09-26T00:47:23.419Z,17.63
2022-09-26T00:52:25.377Z,17.13
2022-09-26T00:57:56.182Z,17.21
2022-09-26T01:02:59.845Z,17.41
2022-09-26T01:08:10.460Z,17.82
2022-09-26T01:13:16.461Z,17.72
2022-09-26T01:18:16.089Z,17.97
2022-09-26T01:23:44.255Z,17.64
2022-09-26T01:29:04.723Z,18.07
2022-09-26T01:34:24.980Z,17.79
2022-09-26T01:39:50.086Z,17.77
2022-09-26T01:44:54.093Z,17.77
2022-09-26T01:50:05.532Z,17.78
2022-09-26T01:55:12.445Z,17.93
2022-09-26T02:00:18.049Z,17.81
2022-09-26T02:05:25.504Z,17.53
2022-09-26T02:10:31.474Z,17.52
2022-09-26T02:15:38.329Z,17.85
2022-09-26T02:20:44.515Z,17.64
2022-09-26T02:25:44.578Z,17.55
2022-09-26T02:30:49.420Z,16.99
2022-09-26T02:35:56.016Z,17.57
2022-09-26T02:41:02.886Z,17.06
2022-09-26T02:46:12.789Z,17.35
2022-09-26T02:51:33.258Z,17.04
2022-09-26T02:56:42.115Z,16.96
2022-09-26T03:01:53.091Z,16.92
2022-09-26T03:07:04.584Z,17.01
2022-09-26T03:12:12.753Z,17.29
2022-09-26T03:17:20.829Z,17.31
2022-09-26T03:22:24.375Z,17.33
2022-09-26T03:27:23.772Z,17.09
2022-09-26T03:32:22.367Z,16.97
2022-09-26T03:37:20.840Z,17.11
2022-09-26T03:42:28.151Z,16.58
2022-09-26T03:47:39.703Z,16.86
2022-09-26T03:53:00.804Z,16.88
2022-09-26T03:58:07.698Z,16.82
2022-09-26T04:03:12.229Z,16.81
2022-09-26T04:08:19.947Z,16.65
2022-09-26T04:13:50.188Z,16.80
2022-09-26T04:19:06.892Z,16.22
2022-09-26T04:24:21.079Z,16.57
2022-09-26T04:29:23.522Z,16.69
2022-09-26T04:34:34.891Z,16.39
2022-09-26T04:39:48.627Z,16.36
2022-09-26T04:45:25.256Z,16.97
2022-09-26T04:51:49.267Z,16.61
2022-09-26T04:56:56.949Z,17.32
2022-09-26T05:02:23.343Z,17.42
2022-09-26T05:07:30.390Z,17.49
2022-09-26T05:12:41.749Z,17.58
2022-09-26T05:17:52.787Z,17.82
2022-09-26T05:22:57.424Z,17.90
2022-09-26T05:27:59.393Z,18.74
2022-09-26T05:32:57.723Z,18.85
2022-09-26T05:37:59.395Z,19.08
2022-09-26T05:43:01.531Z,19.01
2022-09-26T05:48:10.136Z,19.36
2022-09-26T05:53:28.288Z,20.03
2022-09-26T05:59:03.150Z,20.18
2022-09-26T06:05:02.974Z,20.06
2022-09-26T06:10:42.994Z,20.68
2022-09-26T06:15:43.677Z,21.29
2022-09-26T06:20:56.541Z,21.24
2022-09-26T06:26:16.609Z,21.67
2022-09-26T06:31:41.821Z,22.70
2022-09-26T06:37:21.999Z,23.71
2022-09-26T06:42:54.799Z,26.28
2022-09-26T06:53:58.569Z,28.26
2022-09-26T07:07:09.307Z,28.98
2022-09-26T07:12:55.213Z,30.00
2022-09-26T07:19:53.285Z,31.30
2022-09-26T07:36:52.450Z,33.30
2022-09-26T07:42:21.712Z,33.62
2022-09-26T07:48:39.470Z,34.26
2022-09-26T07:54:52.925Z,35.02
2022-09-26T08:00:34.774Z,36.20
2022-09-26T08:05:58.659Z,37.09
2022-09-26T08:11:05.322Z,37.38
2022-09-26T08:16:56.249Z,37.30
2022-09-26T08:22:08.622Z,37.43
2022-09-26T08:27:24.275Z,36.81
2022-09-26T08:32:52.804Z,36.48
2022-09-26T08:38:43.405Z,36.35
2022-09-26T08:44:30.233Z,35.62
2022-09-26T08:50:22.230Z,34.48
2022-09-26T08:55:39.725Z,34.21
2022-09-26T09:01:31.560Z,33.56
2022-09-26T09:06:55.647Z,32.93
2022-09-26T09:12:09.046Z,32.60
2022-09-26T09:17:30.335Z,32.31
2022-09-26T09:23:52.127Z,31.72
2022-09-26T09:29:42.224Z,31.53
2022-09-26T09:35:38.726Z,31.12
2022-09-26T09:41:23.765Z,31.38
2022-09-26T09:46:39.341Z,30.96
2022-09-26T09:52:10.988Z,31.00
2022-09-26T09:57:41.388Z,30.77
2022-09-26T10:03:02.560Z,31.19
2022-09-26T10:08:19.817Z,31.61
2022-09-26T10:14:49.250Z,31.40
2022-09-26T10:28:15.845Z,31.33
2022-09-26T10:54:31.567Z,33.42
2022-09-26T11:06:38.316Z,33.10
2022-09-26T11:38:22.807Z,32.34
2022-09-26T11:51:48.258Z,31.14
2022-09-26T11:57:10.125Z,31.34
2022-09-26T12:03:18.006Z,31.14
2022-09-26T12:08:49.637Z,30.92
2022-09-26T12:14:54.375Z,30.37
2022-09-26T12:20:30.658Z,30.49
2022-09-26T12:26:14.226Z,30.35
2022-09-26T12:31:51.381Z,29.81
2022-09-26T12:49:22.331Z,30.29
2022-09-26T12:55:20.766Z,30.64
2022-09-26T13:07:24.444Z,30.02
2022-09-26T13:12:57.851Z,30.21
2022-09-26T13:18:19.214Z,30.18
2022-09-26T13:23:40.769Z,29.74
2022-09-26T13:29:18.538Z,29.91
2022-09-26T13:34:57.948Z,29.78
2022-09-26T13:40:11.407Z,29.30
2022-09-26T13:45:42.451Z,29.63
2022-09-26T13:50:59.634Z,28.99
2022-09-26T13:56:41.375Z,29.42
2022-09-26T14:02:23.062Z,28.92
2022-09-26T14:08:08.333Z,28.70
2022-09-26T14:13:37.654Z,28.71
2022-09-26T14:19:03.730Z,29.05
2022-09-26T14:25:38.328Z,28.91
2022-09-26T14:31:11.886Z,28.23
2022-09-26T14:36:48.215Z,28.26
2022-09-26T14:41:54.174Z,28.38
2022-09-26T14:47:29.618Z,27.95
2022-09-26T14:52:49.373Z,28.13
2022-09-26T14:58:03.189Z,28.44
2022-09-26T15:03:24.257Z,28.56
2022-09-26T15:09:01.841Z,28.09
2022-09-26T15:14:20.795Z,28.36
2022-09-26T15:19:32.968Z,27.86
2022-09-26T15:24:37.239Z,28.31
2022-09-26T15:29:53.996Z,28.21
2022-09-26T15:35:09.671Z,27.81
2022-09-26T15:40:19.453Z,27.97
2022-09-26T15:46:08.904Z,27.87
2022-09-26T15:51:25.448Z,27.36
2022-09-26T15:56:54.518Z,27.03
2022-09-26T16:02:32.069Z,26.53
2022-09-26T16:07:52.804Z,26.43
2022-09-26T16:13:00.928Z,26.17
2022-09-26T16:18:10.236Z,25.67
2022-09-26T16:23:47.789Z,25.83
2022-09-26T16:29:11.241Z,25.60
2022-09-26T16:40:30.641Z,25.41
2022-09-26T16:58:39.619Z,25.03
2022-09-26T17:04:19.126Z,24.44
2022-09-26T17:09:54.085Z,24.02
2022-09-26T17:15:32.677Z,24.36
2022-09-26T17:35:40.925Z,23.31
2022-09-26T17:47:14.611Z,23.30
2022-09-26T17:59:55.076Z,23.44
2022-09-26T18:05:19.040Z,23.49
2022-09-26T18:10:29.178Z,22.92
2022-09-26T18:15:38.336Z,23.09
2022-09-26T18:20:48.916Z,23.16
2022-09-26T18:26:03.391Z,22.86
2022-09-26T18:31:10.995Z,23.15
2022-09-26T18:36:26.401Z,23.30
2022-09-26T18:41:33.004Z,23.01
2022-09-26T18:47:05.291Z,22.82
2022-09-26T18:52:18.740Z,22.74
2022-09-26T18:58:00.046Z,23.18
2022-09-26T19:15:01.448Z,23.12
2022-09-26T19:20:15.114Z,22.89
2022-09-26T19:25:37.887Z,22.87
2022-09-26T22:26:57.070Z,21.27
2022-09-26T22:52:33.519Z,21.62
2022-09-26T23:18:07.272Z,21.70
2022-09-26T23:30:12.322Z,21.23
